Time;durP1;ratioP1;P1;durP2;ratioP2;P2;SDS_P1;SDS_P2;PMS_P1;PMS_P2;Temp;Humidity;BMP_temperature;BMP_pressure;BME280_temperature;BME280_humidity;BME280_pressure;Samples;Min_cycle;Max_cycle;Signal;HPM_P1;HPM_P2
2023/01/01 00:00:47;;;;;;;28.00;17.38;;;12.50;99.90;;;;;;5072150;28;20378;-62
2023/01/01 00:03:13;;;;;;;24.10;17.00;;;12.50;99.90;;;;;;5053088;28;20072;-62
2023/01/01 00:05:39;;;;;;;37.50;25.85;;;12.50;99.90;;;;;;5072521;28;20068;-61
2023/01/01 00:08:04;;;;;;;34.47;18.55;;;12.50;99.90;;;;;;5054061;28;20040;-62
2023/01/01 00:10:30;;;;;;;26.02;18.17;;;12.40;99.90;;;;;;5054415;28;20062;-62
2023/01/01 00:12:56;;;;;;;26.85;20.77;;;12.40;99.90;;;;;;5072045;28;20036;-62
2023/01/01 00:15:23;;;;;;;62.72;56.13;;;12.40;99.90;;;;;;5071005;28;20405;-62
2023/01/01 00:17:48;;;;;;;26.63;23.95;;;12.40;99.90;;;;;;5070296;28;20055;-62
2023/01/01 00:20:14;;;;;;;195.57;175.70;;;12.40;99.90;;;;;;5054559;28;20058;-62
2023/01/01 00:22:40;;;;;;;36.10;26.90;;;12.40;99.90;;;;;;5054291;28;20504;-62
2023/01/01 00:25:06;;;;;;;27.25;18.52;;;12.40;99.90;;;;;;5070232;28;20045;-61
2023/01/01 00:27:32;;;;;;;28.08;19.13;;;12.40;99.90;;;;;;5071752;28;20051;-61
2023/01/01 00:29:58;;;;;;;53.15;45.67;;;12.50;99.90;;;;;;5072242;28;20086;-62
2023/01/01 00:32:24;;;;;;;41.67;18.52;;;12.50;99.90;;;;;;5053627;28;20048;-62
2023/01/01 00:34:50;;;;;;;25.05;14.40;;;12.50;99.90;;;;;;5054128;28;20070;-62
2023/01/01 00:37:17;;;;;;;26.73;15.10;;;12.50;99.90;;;;;;5053509;28;20457;-62
2023/01/01 00:39:43;;;;;;;20.95;13.90;;;12.50;99.90;;;;;;5071436;28;20089;-61
2023/01/01 00:42:09;;;;;;;26.40;14.60;;;12.50;99.90;;;;;;5070162;28;20132;-62
2023/01/01 00:44:34;;;;;;;24.60;15.95;;;12.50;99.90;;;;;;5070910;28;20111;-62
2023/01/01 00:47:00;;;;;;;24.50;16.30;;;12.50;99.90;;;;;;5053812;28;20086;-62
2023/01/01 00:49:26;;;;;;;33.92;20.67;;;12.60;99.90;;;;;;5037335;28;20041;-62
2023/01/01 00:51:53;;;;;;;27.73;18.80;;;12.60;99.90;;;;;;5071179;28;20115;-62
2023/01/01 00:54:18;;;;;;;24.35;16.98;;;12.60;99.90;;;;;;5054118;28;20037;-62
2023/01/01 00:56:44;;;;;;;27.88;16.85;;;12.60;99.90;;;;;;5053578;28;20572;-62
2023/01/01 00:59:10;;;;;;;24.33;15.82;;;12.60;99.90;;;;;;5071406;28;20040;-62
2023/01/01 01:01:36;;;;;;;24.70;16.15;;;12.60;99.90;;;;;;5053997;28;20080;-62
2023/01/01 01:04:04;;;;;;;26.70;17.98;;;12.60;99.90;;;;;;5053560;28;20040;-62
2023/01/01 01:06:30;;;;;;;28.40;17.80;;;12.60;99.90;;;;;;5053252;28;20049;-62
2023/01/01 01:08:56;;;;;;;29.55;17.83;;;12.50;99.90;;;;;;5053838;28;20047;-61
2023/01/01 01:11:24;;;;;;;26.15;18.33;;;12.50;99.90;;;;;;5071275;28;20041;-62
2023/01/01 01:13:53;;;;;;;31.40;19.10;;;12.50;99.90;;;;;;5053106;28;20048;-62
2023/01/01 01:16:22;;;;;;;29.58;18.63;;;12.40;99.90;;;;;;5071596;28;20446;-62
2023/01/01 01:18:57;;;;;;;44.15;29.20;;;12.40;99.90;;;;;;5053268;28;20074;-62
2023/01/01 01:21:24;;;;;;;41.38;29.90;;;12.40;99.90;;;;;;5053010;28;20097;-62
2023/01/01 01:23:50;;;;;;;40.95;32.97;;;12.40;99.90;;;;;;5036756;28;20121;-62
2023/01/01 01:26:23;;;;;;;23.25;15.98;;;12.40;99.90;;;;;;5071475;28;20041;-62
2023/01/01 01:28:50;;;;;;;30.75;14.82;;;12.50;99.90;;;;;;5053052;28;20055;-62
2023/01/01 01:31:17;;;;;;;29.00;12.68;;;12.60;99.90;;;;;;5071327;28;20127;-62
2023/01/01 01:33:43;;;;;;;27.38;10.02;;;12.60;99.90;;;;;;5036431;28;20524;-61
2023/01/01 01:36:09;;;;;;;17.55;9.30;;;12.50;99.90;;;;;;5053562;28;20045;-61
2023/01/01 01:38:35;;;;;;;25.00;7.93;;;12.50;99.90;;;;;;5053541;28;20512;-62
2023/01/01 01:41:01;;;;;;;23.27;10.27;;;12.40;99.90;;;;;;5052671;28;20040;-62
2023/01/01 01:43:30;;;;;;;18.48;9.52;;;12.40;99.90;;;;;;5053324;28;20045;-62
2023/01/01 01:46:00;;;;;;;23.52;9.90;;;12.30;99.90;;;;;;5071042;28;20115;-62
2023/01/01 01:48:26;;;;;;;17.60;7.57;;;12.20;99.90;;;;;;5071436;28;20528;-61
2023/01/01 01:50:55;;;;;;;18.48;8.90;;;12.20;99.90;;;;;;5056994;28;20067;-62
2023/01/01 01:53:23;;;;;;;20.52;7.63;;;12.20;99.90;;;;;;5074650;28;20123;-61
2023/01/01 01:55:59;;;;;;;18.45;7.22;;;12.20;99.90;;;;;;5056370;28;20032;-62
2023/01/01 01:58:27;;;;;;;21.42;6.68;;;12.20;99.90;;;;;;5056823;28;20044;-62
2023/01/01 02:00:54;;;;;;;21.05;7.13;;;12.10;99.90;;;;;;5056628;28;20051;-61
2023/01/01 02:03:42;;;;;;;14.77;6.88;;;12.10;99.90;;;;;;5056352;28;20040;-62
2023/01/01 02:06:08;;;;;;;19.50;6.22;;;12.10;99.90;;;;;;5056506;28;20065;-61
2023/01/01 02:08:38;;;;;;;13.55;5.50;;;12.10;99.90;;;;;;5040632;28;20040;-62
2023/01/01 02:11:04;;;;;;;21.00;6.93;;;12.10;99.90;;;;;;5073844;28;20401;-62
2023/01/01 02:13:30;;;;;;;16.67;5.50;;;12.00;99.90;;;;;;5056581;28;20055;-61
2023/01/01 02:16:03;;;;;;;15.25;4.93;;;12.00;99.90;;;;;;5073922;28;20119;-61
2023/01/01 02:18:41;;;;;;;14.35;5.40;;;12.00;99.90;;;;;;5056870;28;20508;-62
2023/01/01 02:21:23;;;;;;;15.88;6.10;;;12.10;99.90;;;;;;5056299;28;20055;-62
2023/01/01 02:24:08;;;;;;;14.52;6.07;;;12.00;99.90;;;;;;5055990;28;20398;-61
2023/01/01 02:26:53;;;;;;;13.50;5.10;;;12.00;99.90;;;;;;5040057;28;20090;-61
2023/01/01 02:29:26;;;;;;;15.00;5.33;;;12.00;99.90;;;;;;5040269;28;20441;-61
2023/01/01 02:32:11;;;;;;;15.63;5.30;;;11.90;99.90;;;;;;5055726;28;20201;-62
2023/01/01 02:34:56;;;;;;;15.30;6.25;;;12.00;99.90;;;;;;5074262;28;20052;-62
2023/01/01 02:37:25;;;;;;;16.92;6.28;;;11.90;99.90;;;;;;5055569;28;20040;-61
2023/01/01 02:39:55;;;;;;;17.33;5.40;;;11.90;99.90;;;;;;5056079;28;20057;-62
2023/01/01 02:42:26;;;;;;;12.57;5.85;;;11.90;99.90;;;;;;5039208;28;20592;-62
2023/01/01 02:44:55;;;;;;;14.45;5.13;;;11.80;99.90;;;;;;5073315;28;20397;-62
2023/01/01 02:47:20;;;;;;;18.33;4.65;;;11.80;99.90;;;;;;5073799;28;20083;-62
2023/01/01 02:50:03;;;;;;;10.98;4.85;;;11.90;99.90;;;;;;5073744;28;20068;-62
2023/01/01 02:52:55;;;;;;;16.30;5.28;;;11.90;99.90;;;;;;5055437;28;20079;-62
2023/01/01 02:55:43;;;;;;;12.20;4.45;;;11.90;99.90;;;;;;5055842;28;20050;-62
2023/01/01 03:01:27;;;;;;;13.13;5.05;;;11.90;99.90;;;;;;5054810;28;20131;-62
2023/01/01 03:03:59;;;;;;;13.55;4.95;;;11.90;99.90;;;;;;5055489;28;20045;-62
2023/01/01 03:06:36;;;;;;;15.23;6.00;;;11.90;99.90;;;;;;5072948;28;20063;-62
2023/01/01 03:09:08;;;;;;;13.45;4.50;;;11.90;99.90;;;;;;5073383;28;20049;-62
2023/01/01 03:11:53;;;;;;;14.02;5.45;;;11.90;99.90;;;;;;5073808;28;20127;-62
2023/01/01 03:14:43;;;;;;;12.68;4.97;;;11.90;99.90;;;;;;5072866;28;20044;-62
2023/01/01 03:17:26;;;;;;;11.27;3.63;;;11.90;99.90;;;;;;5073276;28;20044;-62
2023/01/01 03:19:55;;;;;;;9.65;3.67;;;11.90;99.90;;;;;;5054931;28;20097;-61
2023/01/01 03:22:26;;;;;;;8.07;3.40;;;11.90;99.90;;;;;;5072917;28;20044;-62
2023/01/01 03:25:11;;;;;;;9.00;3.25;;;11.90;99.90;;;;;;5055175;28;20036;-62
2023/01/01 03:27:43;;;;;;;11.60;3.72;;;11.90;99.90;;;;;;5073001;28;20033;-62
2023/01/01 03:30:10;;;;;;;10.18;4.07;;;11.90;99.90;;;;;;5054972;28;20044;-61
2023/01/01 03:35:37;;;;;;;13.18;4.40;;;11.80;99.90;;;;;;5072654;28;20101;-62
2023/01/01 03:38:07;;;;;;;10.75;4.28;;;11.80;99.90;;;;;;5054778;28;20052;-62
2023/01/01 03:40:37;;;;;;;19.67;6.22;;;11.80;99.90;;;;;;5072575;28;20099;-61
2023/01/01 03:43:21;;;;;;;13.45;4.18;;;11.80;99.90;;;;;;5054915;28;20076;-62
2023/01/01 03:45:49;;;;;;;13.82;4.78;;;11.80;99.90;;;;;;5054646;28;20052;-62
2023/01/01 03:48:15;;;;;;;16.63;4.97;;;11.70;99.90;;;;;;5054399;28;20036;-62
2023/01/01 03:51:13;;;;;;;16.63;5.00;;;11.70;99.90;;;;;;5054977;28;20057;-62
2023/01/01 03:53:43;;;;;;;15.23;4.60;;;11.70;99.90;;;;;;5072112;28;20063;-62
2023/01/01 03:56:44;;;;;;;17.50;6.30;;;11.70;99.90;;;;;;5054165;28;20055;-62
2023/01/01 03:59:22;;;;;;;13.90;4.43;;;11.70;99.90;;;;;;5053957;28;20048;-62
2023/01/01 04:01:52;;;;;;;17.50;5.82;;;11.70;99.90;;;;;;5071986;28;20036;-61
2023/01/01 04:04:18;;;;;;;12.98;4.90;;;11.70;99.90;;;;;;5072369;28;20044;-62
2023/01/01 04:06:45;;;;;;;12.73;4.82;;;11.70;99.90;;;;;;5071902;28;20048;-62
2023/01/01 04:09:16;;;;;;;11.07;4.03;;;11.70;99.90;;;;;;5054073;28;20032;-62
2023/01/01 04:12:03;;;;;;;13.55;4.38;;;11.70;99.90;;;;;;5072244;28;20505;-62
2023/01/01 04:14:40;;;;;;;17.38;5.50;;;11.60;99.90;;;;;;5054821;28;20044;-61
2023/01/01 04:17:08;;;;;;;12.68;5.35;;;11.60;99.90;;;;;;5053541;28;20049;-61
2023/01/01 04:19:34;;;;;;;14.40;4.05;;;11.60;99.90;;;;;;5054397;28;20045;-62
2023/01/01 04:22:00;;;;;;;18.70;5.40;;;11.60;99.90;;;;;;5054289;28;20044;-62
2023/01/01 04:24:26;;;;;;;16.60;4.85;;;11.50;99.90;;;;;;5053653;28;20037;-62
2023/01/01 04:26:53;;;;;;;16.27;5.57;;;11.50;99.90;;;;;;5053900;28;20041;-62
2023/01/01 04:29:19;;;;;;;17.70;4.57;;;11.50;99.90;;;;;;5054015;28;20036;-62
2023/01/01 04:31:45;;;;;;;12.18;3.60;;;11.50;99.90;;;;;;5071498;28;20044;-62
2023/01/01 04:34:11;;;;;;;15.90;3.90;;;11.50;99.90;;;;;;5053744;28;20040;-62
2023/01/01 04:36:37;;;;;;;10.25;3.80;;;11.50;99.90;;;;;;5071898;28;20393;-62
2023/01/01 04:39:03;;;;;;;11.27;4.10;;;11.50;99.90;;;;;;5053968;28;20089;-62
2023/01/01 04:41:29;;;;;;;10.13;3.10;;;11.50;99.90;;;;;;5054116;28;20514;-62
2023/01/01 04:43:55;;;;;;;16.10;3.63;;;11.60;99.90;;;;;;5053386;28;20094;-61
2023/01/01 04:46:21;;;;;;;13.45;3.30;;;11.60;99.90;;;;;;5053937;28;20094;-61
2023/01/01 04:48:47;;;;;;;15.02;3.28;;;11.60;99.90;;;;;;5053710;28;20044;-62
2023/01/01 04:51:15;;;;;;;13.00;4.28;;;11.60;99.90;;;;;;5053402;28;20052;-62
2023/01/01 04:53:41;;;;;;;18.35;4.57;;;11.60;99.90;;;;;;5054379;28;20452;-61
2023/01/01 04:56:12;;;;;;;19.88;5.00;;;11.60;99.90;;;;;;5071645;28;20111;-61
2023/01/01 04:58:39;;;;;;;22.25;5.07;;;11.60;99.90;;;;;;5053702;28;20488;-61
2023/01/01 05:01:06;;;;;;;18.83;5.65;;;11.60;99.90;;;;;;5071508;28;20037;-62
2023/01/01 05:03:32;;;;;;;14.65;4.68;;;11.60;99.90;;;;;;5054119;28;20481;-61
2023/01/01 05:06:01;;;;;;;13.48;4.07;;;11.60;99.90;;;;;;5049636;28;20053;-62
2023/01/01 05:08:29;;;;;;;15.85;5.00;;;11.60;99.90;;;;;;5050389;28;20080;-62
2023/01/01 05:11:07;;;;;;;19.02;5.50;;;11.60;99.90;;;;;;5051673;28;20045;-62
2023/01/01 05:13:37;;;;;;;16.38;4.70;;;11.50;99.90;;;;;;5050163;28;20051;-62
2023/01/01 05:16:08;;;;;;;13.00;3.97;;;11.50;99.90;;;;;;5051516;28;20505;-62
2023/01/01 05:18:34;;;;;;;19.25;4.82;;;11.50;99.90;;;;;;5050789;28;20135;-62
2023/01/01 05:21:01;;;;;;;22.35;5.00;;;11.50;99.90;;;;;;5051028;28;20037;-62
2023/01/01 05:23:28;;;;;;;15.95;4.85;;;11.50;99.90;;;;;;5052083;28;20037;-62
2023/01/01 05:25:54;;;;;;;12.50;5.15;;;11.50;99.90;;;;;;5055118;28;20115;-61
2023/01/01 05:28:20;;;;;;;14.77;4.78;;;11.50;99.90;;;;;;5054192;28;20124;-62
2023/01/01 05:30:46;;;;;;;17.70;4.78;;;11.50;99.90;;;;;;5054169;28;20052;-61
2023/01/01 05:33:12;;;;;;;12.27;3.95;;;11.50;99.90;;;;;;5053772;28;20136;-62
2023/01/01 05:35:38;;;;;;;14.32;4.95;;;11.50;99.90;;;;;;5054437;28;20489;-62
2023/01/01 05:38:04;;;;;;;12.68;4.20;;;11.50;99.90;;;;;;5053707;28;20060;-62
2023/01/01 05:40:30;;;;;;;13.32;3.83;;;11.50;99.90;;;;;;5055117;28;20040;-62
2023/01/01 05:42:55;;;;;;;15.85;4.57;;;11.40;99.90;;;;;;5053853;28;20044;-62
2023/01/01 05:45:21;;;;;;;15.93;5.07;;;11.40;99.90;;;;;;5053704;28;20051;-62
2023/01/01 05:47:47;;;;;;;13.02;4.55;;;11.40;99.90;;;;;;5053420;28;20052;-62
2023/01/01 05:50:13;;;;;;;13.52;6.15;;;11.40;99.90;;;;;;5037330;28;20045;-61
2023/01/01 05:52:38;;;;;;;14.63;4.95;;;11.30;99.90;;;;;;5053926;28;20429;-62
2023/01/01 05:55:04;;;;;;;12.15;4.82;;;11.30;99.90;;;;;;5054315;28;20029;-61
2023/01/01 05:57:30;;;;;;;13.60;4.40;;;11.30;99.90;;;;;;5037011;28;20447;-62
2023/01/01 05:59:56;;;;;;;14.98;3.92;;;11.30;99.90;;;;;;5053745;28;20171;-61
2023/01/01 06:02:21;;;;;;;16.30;5.03;;;11.20;99.90;;;;;;5054135;28;20124;-62
2023/01/01 06:04:47;;;;;;;7.82;3.50;;;11.20;99.90;;;;;;5055908;28;20033;-62
2023/01/01 06:07:13;;;;;;;13.00;4.28;;;11.20;99.90;;;;;;5040111;28;20501;-62
2023/01/01 06:09:38;;;;;;;9.52;3.70;;;11.10;99.90;;;;;;5074598;28;20036;-62
2023/01/01 06:12:04;;;;;;;11.80;3.72;;;11.10;99.90;;;;;;5039709;28;20405;-62
2023/01/01 06:14:30;;;;;;;16.98;3.95;;;11.10;99.90;;;;;;5074946;28;20036;-62
2023/01/01 06:16:56;;;;;;;17.65;3.97;;;11.00;99.90;;;;;;5056116;28;20051;-62
2023/01/01 06:19:22;;;;;;;16.92;4.40;;;11.00;99.90;;;;;;5056273;28;20120;-62
2023/01/01 06:21:47;;;;;;;17.05;4.63;;;11.00;99.90;;;;;;5074271;28;20090;-62
2023/01/01 06:24:13;;;;;;;12.43;4.13;;;10.90;99.90;;;;;;5074026;28;20078;-62
2023/01/01 06:26:39;;;;;;;16.55;4.22;;;10.90;99.90;;;;;;5074390;28;20047;-62
2023/01/01 06:29:04;;;;;;;13.25;3.67;;;10.90;99.90;;;;;;5073777;28;20029;-62
2023/01/01 06:31:31;;;;;;;14.88;3.30;;;10.90;99.90;;;;;;5056526;28;20054;-62
2023/01/01 06:33:57;;;;;;;12.77;2.90;;;10.90;99.90;;;;;;5056153;28;20050;-62
2023/01/01 06:36:24;;;;;;;19.42;3.88;;;11.00;99.90;;;;;;5054607;28;20824;-62
2023/01/01 06:38:52;;;;;;;14.07;3.88;;;10.90;99.90;;;;;;5074417;28;20046;-62
2023/01/01 06:41:20;;;;;;;19.98;4.15;;;11.00;99.90;;;;;;5073985;28;20086;-62
2023/01/01 06:43:46;;;;;;;13.00;4.15;;;10.90;99.90;;;;;;5055944;28;20037;-62
2023/01/01 06:46:33;;;;;;;15.27;3.67;;;10.90;99.90;;;;;;5056018;28;20041;-62
2023/01/01 06:49:02;;;;;;;16.95;3.60;;;10.90;99.90;;;;;;5056315;28;20029;-61
2023/01/01 06:51:39;;;;;;;17.45;4.28;;;10.90;99.90;;;;;;5055731;28;20033;-62
2023/01/01 06:54:06;;;;;;;15.50;3.78;;;10.90;99.90;;;;;;5055790;28;20362;-62
2023/01/01 06:56:33;;;;;;;15.32;4.13;;;10.90;99.90;;;;;;5056243;28;20041;-62
2023/01/01 06:58:59;;;;;;;9.82;3.97;;;10.90;99.90;;;;;;5055310;28;20658;-62
2023/01/01 07:01:27;;;;;;;13.85;3.13;;;10.80;99.90;;;;;;5073233;28;20043;-62
2023/01/01 07:04:01;;;;;;;14.90;4.18;;;10.80;99.90;;;;;;5055889;28;20036;-62
2023/01/01 07:06:28;;;;;;;17.83;4.03;;;10.80;99.90;;;;;;5054911;28;20055;-62
2023/01/01 07:08:54;;;;;;;17.20;3.97;;;10.80;99.90;;;;;;5055683;28;20367;-62
2023/01/01 07:11:21;;;;;;;15.73;4.70;;;10.80;99.90;;;;;;5072977;28;20048;-62
2023/01/01 07:13:46;;;;;;;22.80;4.05;;;10.80;99.90;;;;;;5038775;28;20055;-62
2023/01/01 07:16:13;;;;;;;20.15;4.43;;;10.80;99.90;;;;;;5055157;28;20037;-61
2023/01/01 07:18:38;;;;;;;17.23;4.60;;;10.70;99.90;;;;;;5073247;28;20044;-62
2023/01/01 07:21:05;;;;;;;20.27;5.68;;;10.70;99.90;;;;;;5055112;28;20036;-62
2023/01/01 07:23:33;;;;;;;15.60;4.72;;;10.70;99.90;;;;;;5038732;28;20037;-62
2023/01/01 07:25:59;;;;;;;16.17;4.43;;;10.70;99.90;;;;;;5072666;28;20045;-62
2023/01/01 07:28:26;;;;;;;17.60;4.13;;;10.70;99.90;;;;;;5054764;28;20044;-62
2023/01/01 07:30:54;;;;;;;13.80;4.57;;;10.70;99.90;;;;;;5073328;28;20051;-62
2023/01/01 07:33:22;;;;;;;18.83;4.85;;;10.60;99.90;;;;;;5054786;28;20105;-62
2023/01/01 07:35:48;;;;;;;19.58;5.25;;;10.60;99.90;;;;;;5054828;28;20052;-62
2023/01/01 07:38:15;;;;;;;24.90;6.38;;;10.70;99.90;;;;;;5054931;28;20048;-62
2023/01/01 07:40:41;;;;;;;20.15;4.03;;;10.60;99.90;;;;;;5072650;28;20047;-61
2023/01/01 07:43:07;;;;;;;26.45;5.47;;;10.60;99.90;;;;;;5054672;28;20047;-61
2023/01/01 07:45:33;;;;;;;19.70;5.03;;;10.60;99.90;;;;;;5055468;28;20044;-62
2023/01/01 07:47:59;;;;;;;17.05;4.60;;;10.60;99.90;;;;;;5071910;28;20047;-62
2023/01/01 07:50:27;;;;;;;16.88;4.20;;;10.50;99.90;;;;;;5072605;28;20036;-62
2023/01/01 07:52:53;;;;;;;15.60;4.47;;;10.50;99.90;;;;;;5055088;28;20485;-62
2023/01/01 07:55:20;;;;;;;19.00;5.10;;;10.60;99.90;;;;;;5054233;28;20036;-62
2023/01/01 07:57:46;;;;;;;17.88;5.63;;;10.50;99.90;;;;;;5054235;28;20041;-62
2023/01/01 08:00:14;;;;;;;16.55;5.75;;;10.60;99.90;;;;;;5054879;28;20443;-62
2023/01/01 08:02:40;;;;;;;26.45;5.70;;;10.50;99.90;;;;;;5037836;28;20040;-62
2023/01/01 08:05:06;;;;;;;22.13;5.53;;;10.50;99.90;;;;;;5037566;28;20049;-62
2023/01/01 08:07:32;;;;;;;17.35;4.53;;;10.50;99.90;;;;;;5054317;28;20052;-62
2023/01/01 08:09:58;;;;;;;17.65;4.07;;;10.50;99.90;;;;;;5072369;28;20481;-62
2023/01/01 08:12:24;;;;;;;21.27;4.90;;;10.50;99.90;;;;;;5037367;28;20101;-62
2023/01/01 08:14:50;;;;;;;22.88;6.22;;;10.60;99.90;;;;;;5053986;28;20123;-62
2023/01/01 08:17:15;;;;;;;21.88;6.32;;;10.50;99.90;;;;;;5072362;28;20124;-62
2023/01/01 08:19:41;;;;;;;21.63;6.38;;;10.50;99.90;;;;;;5054231;28;20059;-62
2023/01/01 08:22:07;;;;;;;14.35;5.05;;;10.50;99.90;;;;;;5071726;28;20041;-63
2023/01/01 08:24:32;;;;;;;22.13;6.30;;;10.50;99.90;;;;;;5054360;28;20094;-62
2023/01/01 08:26:58;;;;;;;23.30;6.20;;;10.50;99.90;;;;;;5072214;28;20375;-62
2023/01/01 08:29:24;;;;;;;23.55;9.25;;;10.50;99.90;;;;;;5054019;28;20055;-62
2023/01/01 08:31:49;;;;;;;23.23;10.70;;;10.50;99.90;;;;;;5053801;28;20078;-62
2023/01/01 08:34:15;;;;;;;20.00;6.30;;;10.50;99.90;;;;;;5068516;28;20033;-62
2023/01/01 08:36:41;;;;;;;27.13;7.07;;;10.50;99.90;;;;;;5048818;28;20044;-62
2023/01/01 08:39:07;;;;;;;31.70;11.75;;;10.50;99.90;;;;;;5053800;28;20146;-61
2023/01/01 08:41:33;;;;;;;19.50;7.30;;;10.50;99.90;;;;;;5070597;28;20048;-62
2023/01/01 08:43:59;;;;;;;25.65;6.22;;;10.50;99.90;;;;;;5071294;28;20039;-62
2023/01/01 08:46:24;;;;;;;23.83;8.77;;;10.60;99.90;;;;;;5037093;28;20551;-62
2023/01/01 08:48:51;;;;;;;19.20;5.93;;;10.60;99.90;;;;;;5066497;28;20116;-62
2023/01/01 09:14:13;;;;;;;25.73;6.43;;;10.60;99.90;;;;;;5044434;28;20128;-64
2023/01/01 09:16:39;;;;;;;22.38;5.40;;;10.60;99.90;;;;;;5049605;28;20060;-63
2023/01/01 09:19:05;;;;;;;18.75;4.90;;;10.60;99.90;;;;;;5047923;28;20049;-62
2023/01/01 09:21:30;;;;;;;20.00;4.55;;;10.60;99.90;;;;;;5034585;28;20043;-63
2023/01/01 09:23:56;;;;;;;18.88;4.70;;;10.60;99.90;;;;;;5056490;28;20049;-63
2023/01/01 09:26:21;;;;;;;20.70;5.75;;;10.60;99.90;;;;;;5067696;28;20037;-63
2023/01/01 09:28:47;;;;;;;14.77;5.07;;;10.60;99.90;;;;;;5034513;28;20490;-63
2023/01/01 09:31:13;;;;;;;27.08;6.50;;;10.60;99.90;;;;;;5067142;28;20060;-62
2023/01/01 09:33:39;;;;;;;24.40;5.72;;;10.60;99.90;;;;;;5061298;28;20470;-62
2023/01/01 09:36:34;;;;;;;23.48;5.38;;;10.60;99.90;;;;;;5068430;28;20113;-62
2023/01/01 09:39:01;;;;;;;19.23;6.00;;;10.60;99.90;;;;;;5038921;28;20052;-62
2023/01/01 09:42:13;;;;;;;29.10;6.43;;;10.60;99.90;;;;;;5051041;28;20174;-62
2023/01/01 09:44:51;;;;;;;23.33;5.90;;;10.60;99.90;;;;;;5056340;28;20413;-62
2023/01/01 09:47:27;;;;;;;27.20;6.00;;;10.60;99.90;;;;;;5066638;28;20043;-62
2023/01/01 09:49:57;;;;;;;29.90;7.18;;;10.60;99.90;;;;;;5027504;28;20144;-62
2023/01/01 09:52:28;;;;;;;22.75;6.55;;;10.60;99.90;;;;;;5051016;28;20497;-62
2023/01/01 10:06:14;;;;;;;28.33;6.40;;;10.60;99.90;;;;;;5047931;28;20401;-62
2023/01/01 10:09:01;;;;;;;16.27;5.10;;;10.70;99.90;;;;;;5056429;28;20102;-62
2023/01/01 10:12:00;;;;;;;18.88;4.63;;;10.70;99.90;;;;;;5071513;28;20127;-62
2023/01/01 10:14:31;;;;;;;20.23;5.32;;;10.80;99.90;;;;;;5071544;28;20827;-61
2023/01/01 10:17:00;;;;;;;17.67;5.25;;;10.80;99.90;;;;;;5071502;28;20061;-62
2023/01/01 10:19:33;;;;;;;22.95;5.72;;;10.90;99.90;;;;;;5058304;28;20127;-62
2023/01/01 10:22:17;;;;;;;18.58;5.95;;;10.90;99.90;;;;;;5069779;28;20078;-62
2023/01/01 10:24:48;;;;;;;19.85;4.78;;;10.90;99.90;;;;;;5071037;28;20052;-62
2023/01/01 10:27:31;;;;;;;24.95;5.70;;;11.00;99.90;;;;;;5070941;28;20446;-62
2023/01/01 10:29:58;;;;;;;20.25;5.75;;;10.90;99.90;;;;;;5052762;28;20635;-62
2023/01/01 10:32:34;;;;;;;25.58;6.22;;;11.00;99.90;;;;;;5053266;28;20489;-62
2023/01/01 10:35:03;;;;;;;14.20;5.13;;;11.00;99.90;;;;;;5057893;28;20048;-63
2023/01/01 10:37:34;;;;;;;18.92;5.55;;;11.00;99.90;;;;;;5066794;28;20055;-62
2023/01/01 10:40:09;;;;;;;19.38;6.03;;;11.00;99.90;;;;;;5037406;28;20078;-62
2023/01/01 10:42:34;;;;;;;24.17;5.18;;;11.00;99.90;;;;;;5055536;28;20798;-62
2023/01/01 10:45:04;;;;;;;24.90;6.22;;;11.00;99.90;;;;;;5061991;28;20055;-62
2023/01/01 10:47:30;;;;;;;16.00;5.75;;;11.10;99.90;;;;;;5070716;28;20070;-62
2023/01/01 10:50:01;;;;;;;18.48;5.03;;;11.10;99.90;;;;;;5069848;28;20032;-61
2023/01/01 10:52:37;;;;;;;26.85;5.50;;;11.10;99.90;;;;;;5069879;28;20044;-62
2023/01/01 11:25:34;;;;;;;12.80;3.88;;;11.10;99.90;;;;;;5045977;28;20962;-63
2023/01/01 11:28:15;;;;;;;19.40;3.50;;;11.10;99.90;;;;;;5058874;28;20444;-63
2023/01/01 11:30:56;;;;;;;19.13;4.45;;;11.00;99.90;;;;;;5057869;28;20094;-62
2023/01/01 11:33:22;;;;;;;18.38;5.80;;;11.00;99.90;;;;;;5050925;28;20095;-62
2023/01/01 11:35:52;;;;;;;17.15;4.30;;;11.10;99.90;;;;;;5070045;28;20041;-62
2023/01/01 11:38:19;;;;;;;19.95;4.35;;;11.00;99.90;;;;;;5054991;28;20033;-63
2023/01/01 11:40:48;;;;;;;16.70;4.97;;;11.00;99.90;;;;;;5070977;28;20052;-62
2023/01/01 11:43:23;;;;;;;14.05;4.38;;;11.00;99.90;;;;;;5072880;28;20032;-62
2023/01/01 11:45:49;;;;;;;14.52;3.30;;;11.00;99.90;;;;;;5037921;28;20082;-62
2023/01/01 11:48:24;;;;;;;13.55;4.10;;;11.10;99.90;;;;;;5072245;28;20440;-62
2023/01/01 11:50:56;;;;;;;14.18;4.32;;;11.10;99.90;;;;;;5054759;28;20040;-63
2023/01/01 11:53:22;;;;;;;21.10;4.65;;;11.10;99.90;;;;;;5038711;28;20051;-62
2023/01/01 11:55:59;;;;;;;15.73;3.90;;;11.10;99.90;;;;;;5063807;28;20037;-62
2023/01/01 11:58:24;;;;;;;15.55;4.47;;;11.20;99.90;;;;;;5047608;28;20041;-62
2023/01/01 12:00:55;;;;;;;13.30;4.63;;;11.20;99.90;;;;;;5070333;28;20028;-62
2023/01/01 12:03:40;;;;;;;14.95;4.95;;;11.20;99.90;;;;;;5054285;28;20028;-62
2023/01/01 12:06:14;;;;;;;20.73;4.63;;;11.20;99.90;;;;;;5064834;28;20083;-63
2023/01/01 12:08:55;;;;;;;16.40;4.25;;;11.20;99.90;;;;;;5069463;28;20056;-63
2023/01/01 12:11:45;;;;;;;21.70;4.75;;;11.20;99.90;;;;;;5053117;28;20481;-63
2023/01/01 12:14:31;;;;;;;15.82;5.03;;;11.20;99.90;;;;;;5070343;28;20049;-62
2023/01/01 12:17:05;;;;;;;18.33;3.70;;;11.20;99.90;;;;;;5070678;28;20048;-62
2023/01/01 12:19:41;;;;;;;19.27;3.80;;;11.30;99.90;;;;;;5066535;28;20543;-63
2023/01/01 12:22:14;;;;;;;13.85;3.85;;;11.30;99.90;;;;;;5071552;28;20036;-62
2023/01/01 12:24:41;;;;;;;18.75;5.85;;;11.40;99.90;;;;;;5072522;28;20071;-62
2023/01/01 12:27:19;;;;;;;17.48;3.92;;;11.40;99.90;;;;;;5062450;28;20056;-62
2023/01/01 12:30:14;;;;;;;15.73;3.95;;;11.50;99.90;;;;;;5070400;28;20035;-62
2023/01/01 12:32:45;;;;;;;18.88;5.50;;;11.50;99.90;;;;;;5057343;28;20057;-63
2023/01/01 12:35:33;;;;;;;16.45;4.65;;;11.40;99.90;;;;;;5069157;28;20044;-62
2023/01/01 12:38:13;;;;;;;17.33;4.13;;;11.50;99.90;;;;;;5052483;28;20048;-63
2023/01/01 12:41:10;;;;;;;12.93;4.07;;;11.50;99.90;;;;;;5045772;28;20051;-63
2023/01/01 12:44:03;;;;;;;16.00;3.90;;;11.50;99.90;;;;;;5035498;28;20520;-62
2023/01/01 12:47:03;;;;;;;17.27;4.25;;;11.60;99.90;;;;;;5053629;28;20071;-62
2023/01/01 12:50:17;;;;;;;13.82;3.83;;;11.50;99.90;;;;;;5067310;28;20481;-62
2023/01/01 12:53:11;;;;;;;9.77;3.53;;;11.50;99.90;;;;;;5046529;28;20059;-62
2023/01/01 12:55:55;;;;;;;11.07;3.65;;;11.40;99.90;;;;;;5068110;28;20040;-63
2023/01/01 12:58:27;;;;;;;17.10;4.00;;;11.40;99.90;;;;;;5060335;28;20393;-62
2023/01/01 13:01:00;;;;;;;14.57;4.18;;;11.40;99.90;;;;;;5066340;28;20110;-62
2023/01/01 13:03:59;;;;;;;15.88;4.70;;;11.40;99.90;;;;;;5067430;28;20044;-62
2023/01/01 13:06:39;;;;;;;13.93;4.22;;;11.40;99.90;;;;;;5012709;28;20044;-63
2023/01/01 13:09:21;;;;;;;16.73;4.78;;;11.40;99.90;;;;;;5051302;28;20354;-62
2023/01/01 13:11:53;;;;;;;23.83;5.00;;;11.40;99.90;;;;;;5068514;28;20547;-62
2023/01/01 13:14:19;;;;;;;12.75;3.92;;;11.40;99.90;;;;;;5050386;28;20051;-62
2023/01/01 13:16:51;;;;;;;16.40;4.72;;;11.40;99.90;;;;;;5050755;28;20036;-62
2023/01/01 13:19:30;;;;;;;18.27;4.93;;;11.40;99.90;;;;;;5064099;28;20053;-62
2023/01/01 13:21:55;;;;;;;15.98;4.25;;;11.40;99.90;;;;;;5061413;28;20374;-62
2023/01/01 13:24:25;;;;;;;16.27;3.75;;;11.30;99.90;;;;;;5062089;28;20071;-62
2023/01/01 13:26:52;;;;;;;18.15;3.92;;;11.40;99.90;;;;;;5067775;28;20053;-62
2023/01/01 13:29:18;;;;;;;17.48;3.85;;;11.40;99.90;;;;;;5050698;28;20043;-62
2023/01/01 13:31:46;;;;;;;18.20;3.75;;;11.40;99.90;;;;;;5067201;28;20044;-62
2023/01/01 13:34:34;;;;;;;17.02;4.22;;;11.40;99.90;;;;;;5067225;28;20048;-63
2023/01/01 13:37:18;;;;;;;18.65;4.82;;;11.40;99.90;;;;;;5050253;28;20047;-62
2023/01/01 13:40:01;;;;;;;16.23;4.25;;;11.30;99.90;;;;;;5050297;28;20146;-62
2023/01/01 13:42:50;;;;;;;16.05;4.90;;;11.30;99.90;;;;;;5067582;28;20048;-62
2023/01/01 13:45:27;;;;;;;14.68;4.38;;;11.30;99.90;;;;;;5068718;28;20574;-62
2023/01/01 13:48:40;;;;;;;22.08;4.30;;;11.30;99.90;;;;;;5070840;28;20043;-62
2023/01/01 13:51:24;;;;;;;21.95;4.60;;;11.20;99.90;;;;;;5061325;28;20094;-62
2023/01/01 13:54:31;;;;;;;18.73;4.18;;;11.20;99.90;;;;;;5059021;28;20055;-62
2023/01/01 13:57:31;;;;;;;17.77;5.38;;;11.20;99.90;;;;;;5071501;28;20435;-62
2023/01/01 14:00:21;;;;;;;18.35;4.88;;;11.20;99.90;;;;;;5052736;28;20726;-62
2023/01/01 14:03:00;;;;;;;14.82;5.10;;;11.20;99.90;;;;;;5054122;28;20539;-62
2023/01/01 14:05:47;;;;;;;20.55;4.88;;;11.20;99.90;;;;;;5052040;28;20044;-62
2023/01/01 14:08:32;;;;;;;16.60;5.10;;;11.10;99.90;;;;;;5037033;28;20083;-62